Time;durP1;ratioP1;P1;durP2;ratioP2;P2;SDS_P1;SDS_P2;PMS_P1;PMS_P2;Temp;Humidity;BMP_temperature;BMP_pressure;BME280_temperature;BME280_humidity;BME280_pressure;Samples;Min_cycle;Max_cycle;Signal;HPM_P1;HPM_P2
2023/03/29 00:00:44;;;;;;;4.85;1.88;;;;;;;;;;5075051;28;20032;-63
2023/03/29 00:03:11;;;;;;;5.82;2.00;;;;;;;;;;5075571;28;20082;-63
2023/03/29 00:05:37;;;;;;;3.45;2.05;;;;;;;;;;5074463;28;20028;-63
2023/03/29 00:08:03;;;;;;;6.00;1.98;;;;;;;;;;5078039;28;20055;-63
2023/03/29 00:10:28;;;;;;;3.05;1.60;;;;;;;;;;5081061;28;20028;-63
2023/03/29 00:12:54;;;;;;;4.88;2.00;;;;;;;;;;5076277;28;20042;-63
2023/03/29 00:15:19;;;;;;;4.55;2.00;;;;;;;;;;5093737;28;20085;-63
2023/03/29 00:17:45;;;;;;;8.23;2.15;;;;;;;;;;5078380;28;20348;-63
2023/03/29 00:20:11;;;;;;;4.32;1.85;;;;;;;;;;5082675;28;20036;-63
2023/03/29 00:22:38;;;;;;;4.78;1.85;;;;;;;;;;5074155;28;20028;-63
2023/03/29 00:25:04;;;;;;;3.22;1.58;;;;;;;;;;5081930;28;20107;-63
2023/03/29 00:27:29;;;;;;;4.45;2.00;;;;;;;;;;5074666;28;20103;-63
2023/03/29 00:29:55;;;;;;;4.45;1.80;;;;;;;;;;5093078;28;20036;-63
2023/03/29 00:32:20;;;;;;;2.88;1.42;;;;;;;;;;5075377;28;20364;-63
2023/03/29 00:34:49;;;;;;;3.75;2.00;;;;;;;;;;5074143;28;20028;-63
2023/03/29 00:37:15;;;;;;;2.78;1.50;;;;;;;;;;5073898;28;20067;-63
2023/03/29 00:39:40;;;;;;;3.72;1.63;;;;;;;;;;5086098;28;20056;-63
2023/03/29 00:42:09;;;;;;;5.47;1.60;;;;;;;;;;5073997;28;20019;-63
2023/03/29 00:44:53;;;;;;;5.25;1.80;;;;;;;;;;5083871;28;20024;-63
2023/03/29 00:47:23;;;;;;;4.63;1.98;;;;;;;;;;5073298;28;20021;-63
2023/03/29 00:49:51;;;;;;;4.25;1.67;;;;;;;;;;5073150;28;20027;-63
2023/03/29 00:52:20;;;;;;;3.10;1.50;;;;;;;;;;5074322;28;20028;-63
2023/03/29 00:54:45;;;;;;;3.72;1.60;;;;;;;;;;5073794;28;20047;-63
2023/03/29 00:57:12;;;;;;;8.05;1.40;;;;;;;;;;5073798;28;20379;-63
2023/03/29 00:59:40;;;;;;;3.10;1.70;;;;;;;;;;5074184;28;20053;-63
2023/03/29 01:02:06;;;;;;;4.82;1.98;;;;;;;;;;5073549;28;20024;-63
2023/03/29 01:04:35;;;;;;;4.43;1.83;;;;;;;;;;5073399;28;20360;-63
2023/03/29 01:07:06;;;;;;;3.90;1.70;;;;;;;;;;5073571;28;20471;-63
2023/03/29 01:09:33;;;;;;;4.63;1.77;;;;;;;;;;5077177;28;20016;-63
2023/03/29 01:12:01;;;;;;;2.60;1.48;;;;;;;;;;5082085;28;20471;-63
2023/03/29 01:14:33;;;;;;;4.30;1.80;;;;;;;;;;5075289;28;20016;-63
2023/03/29 01:16:58;;;;;;;3.55;1.77;;;;;;;;;;5055002;28;20055;-62
2023/03/29 01:19:26;;;;;;;2.42;1.05;;;;;;;;;;5086870;28;20117;-62
2023/03/29 01:22:00;;;;;;;4.55;1.60;;;;;;;;;;5073295;28;20025;-63
2023/03/29 01:24:40;;;;;;;4.07;1.80;;;;;;;;;;5073390;28;20052;-63
2023/03/29 01:27:18;;;;;;;4.38;1.85;;;;;;;;;;5073755;28;20035;-62
2023/03/29 01:29:46;;;;;;;3.17;1.63;;;;;;;;;;5073118;28;20105;-63
2023/03/29 01:32:24;;;;;;;6.97;2.22;;;;;;;;;;5075689;28;20103;-63
2023/03/29 01:34:56;;;;;;;4.45;1.52;;;;;;;;;;5072710;28;20025;-63
2023/03/29 01:37:25;;;;;;;4.07;1.50;;;;;;;;;;5072572;28;20024;-63
2023/03/29 01:39:51;;;;;;;4.72;1.70;;;;;;;;;;5073113;28;20031;-63
2023/03/29 01:42:25;;;;;;;7.15;1.95;;;;;;;;;;5071053;28;20070;-63
2023/03/29 01:44:57;;;;;;;4.03;1.42;;;;;;;;;;5072299;28;20025;-63
2023/03/29 01:47:33;;;;;;;6.75;1.70;;;;;;;;;;5072387;28;20395;-63
2023/03/29 01:50:08;;;;;;;3.35;1.70;;;;;;;;;;5073270;28;20125;-63
2023/03/29 01:52:53;;;;;;;4.15;1.70;;;;;;;;;;5072502;28;20035;-63
2023/03/29 01:55:23;;;;;;;3.92;1.90;;;;;;;;;;5071768;28;20055;-63
2023/03/29 01:57:51;;;;;;;3.42;1.73;;;;;;;;;;5072770;28;20020;-62
2023/03/29 02:00:18;;;;;;;5.32;1.85;;;;;;;;;;5072636;28;20020;-62
2023/03/29 02:02:44;;;;;;;5.75;1.55;;;;;;;;;;5072592;28;20379;-62
2023/03/29 02:05:11;;;;;;;4.00;1.98;;;;;;;;;;5072246;28;20028;-62
2023/03/29 02:07:37;;;;;;;3.10;1.58;;;;;;;;;;5084147;28;20074;-63
2023/03/29 02:10:04;;;;;;;3.70;1.30;;;;;;;;;;5072448;28;20413;-63
2023/03/29 02:12:29;;;;;;;3.22;1.50;;;;;;;;;;5072547;28;20506;-63
2023/03/29 02:14:56;;;;;;;2.65;1.50;;;;;;;;;;5072063;28;20068;-62
2023/03/29 02:17:23;;;;;;;3.88;1.70;;;;;;;;;;5072901;28;20032;-63
2023/03/29 02:19:50;;;;;;;7.90;1.77;;;;;;;;;;5072478;28;20027;-63
2023/03/29 02:22:20;;;;;;;3.65;1.65;;;;;;;;;;5072424;28;20444;-63
2023/03/29 02:24:47;;;;;;;4.05;1.73;;;;;;;;;;5072389;28;20052;-63
2023/03/29 02:27:12;;;;;;;4.22;1.80;;;;;;;;;;5077301;28;20025;-63
2023/03/29 02:29:37;;;;;;;5.68;1.73;;;;;;;;;;5072011;28;20378;-63
2023/03/29 02:32:29;;;;;;;5.63;1.73;;;;;;;;;;5074930;28;20039;-63
2023/03/29 02:35:00;;;;;;;5.63;1.48;;;;;;;;;;5048090;28;20119;-63
2023/03/29 02:37:29;;;;;;;3.45;1.65;;;;;;;;;;5071963;28;20028;-63
2023/03/29 02:39:54;;;;;;;4.25;1.83;;;;;;;;;;5072134;28;20017;-63
2023/03/29 02:42:20;;;;;;;5.03;1.90;;;;;;;;;;5079993;28;20089;-63
2023/03/29 02:44:48;;;;;;;7.32;2.20;;;;;;;;;;5057562;28;20485;-63
2023/03/29 02:47:17;;;;;;;3.47;1.40;;;;;;;;;;5071831;28;20031;-63
2023/03/29 02:49:42;;;;;;;3.88;1.73;;;;;;;;;;5084341;28;20024;-63
2023/03/29 02:52:09;;;;;;;3.53;1.48;;;;;;;;;;5071843;28;20545;-63
2023/03/29 02:54:36;;;;;;;3.33;1.73;;;;;;;;;;5071659;28;20027;-62
2023/03/29 02:57:05;;;;;;;4.07;1.60;;;;;;;;;;5071914;28;20052;-63
2023/03/29 02:59:30;;;;;;;3.47;1.38;;;;;;;;;;5071908;28;20070;-63
2023/03/29 03:01:56;;;;;;;3.67;1.52;;;;;;;;;;5072606;28;20020;-63
2023/03/29 03:04:21;;;;;;;3.47;1.80;;;;;;;;;;5072000;28;20020;-63
2023/03/29 03:06:47;;;;;;;5.50;2.13;;;;;;;;;;5071658;28;20060;-63
2023/03/29 03:09:13;;;;;;;4.70;1.77;;;;;;;;;;5072496;28;20041;-63
2023/03/29 03:11:38;;;;;;;3.30;1.67;;;;;;;;;;5082992;28;20028;-63
2023/03/29 03:14:05;;;;;;;3.20;1.67;;;;;;;;;;5071852;28;20063;-63
2023/03/29 03:16:31;;;;;;;4.35;1.88;;;;;;;;;;5079787;28;20035;-63
2023/03/29 03:18:56;;;;;;;2.50;1.25;;;;;;;;;;5086528;28;20114;-63
2023/03/29 03:21:22;;;;;;;2.95;1.30;;;;;;;;;;5071558;28;20028;-63
2023/03/29 03:23:48;;;;;;;4.82;1.50;;;;;;;;;;5075202;28;20026;-63
2023/03/29 03:26:14;;;;;;;6.20;2.28;;;;;;;;;;5080687;28;20035;-63
2023/03/29 03:28:40;;;;;;;3.10;1.50;;;;;;;;;;5078233;28;20433;-63
2023/03/29 03:31:05;;;;;;;4.45;1.77;;;;;;;;;;5071264;28;20021;-63
2023/03/29 03:33:31;;;;;;;11.20;1.73;;;;;;;;;;5071382;28;20024;-63
2023/03/29 03:36:01;;;;;;;3.75;1.58;;;;;;;;;;5081942;28;20074;-64
2023/03/29 03:38:27;;;;;;;3.63;1.75;;;;;;;;;;5072773;28;20414;-63
2023/03/29 03:40:57;;;;;;;5.47;1.65;;;;;;;;;;5071303;28;20027;-63
2023/03/29 03:43:22;;;;;;;5.10;1.83;;;;;;;;;;5071451;28;20017;-62
2023/03/29 03:45:48;;;;;;;4.80;2.35;;;;;;;;;;5071174;28;20433;-62
2023/03/29 03:48:13;;;;;;;7.43;2.00;;;;;;;;;;5071159;28;20035;-63
2023/03/29 03:50:39;;;;;;;3.10;1.30;;;;;;;;;;5082997;28;20471;-63
2023/03/29 03:53:04;;;;;;;3.28;1.58;;;;;;;;;;5072059;28;20463;-63
2023/03/29 03:55:31;;;;;;;4.35;1.88;;;;;;;;;;5076565;28;20036;-63
2023/03/29 03:57:56;;;;;;;5.38;1.80;;;;;;;;;;5071523;28;20056;-63
2023/03/29 04:00:22;;;;;;;4.25;1.70;;;;;;;;;;5070932;28;20045;-63
2023/03/29 04:02:48;;;;;;;4.10;1.85;;;;;;;;;;5068292;28;20374;-63
2023/03/29 04:05:13;;;;;;;6.03;2.17;;;;;;;;;;5064140;28;20024;-63
2023/03/29 04:07:40;;;;;;;3.25;1.75;;;;;;;;;;5073851;28;20017;-63
2023/03/29 04:10:07;;;;;;;3.28;1.83;;;;;;;;;;5074086;28;20024;-62
2023/03/29 04:12:33;;;;;;;7.13;2.33;;;;;;;;;;5074186;28;20146;-62
2023/03/29 04:14:58;;;;;;;4.20;1.70;;;;;;;;;;5073952;28;20471;-63
2023/03/29 04:17:24;;;;;;;3.58;1.75;;;;;;;;;;5074383;28;20025;-63
2023/03/29 04:19:49;;;;;;;4.30;1.92;;;;;;;;;;5074641;28;20025;-63
2023/03/29 04:22:14;;;;;;;6.38;2.10;;;;;;;;;;5079122;28;20414;-62
2023/03/29 04:24:40;;;;;;;5.47;2.13;;;;;;;;;;5083240;28;20040;-63
2023/03/29 04:27:05;;;;;;;7.10;1.63;;;;;;;;;;5074045;28;20017;-62
2023/03/29 04:29:30;;;;;;;4.00;1.67;;;;;;;;;;5073898;28;20029;-63
2023/03/29 04:31:56;;;;;;;5.00;1.85;;;;;;;;;;5074089;28;20402;-63
2023/03/29 04:34:21;;;;;;;7.00;1.65;;;;;;;;;;5074398;28;20027;-62
2023/03/29 04:36:49;;;;;;;3.53;1.88;;;;;;;;;;5074149;28;20020;-63
2023/03/29 04:39:14;;;;;;;5.28;2.38;;;;;;;;;;5074201;28;20031;-63
2023/03/29 04:41:40;;;;;;;5.53;2.35;;;;;;;;;;5056090;28;20463;-63
2023/03/29 04:44:05;;;;;;;4.50;2.00;;;;;;;;;;5073972;28;20490;-63
2023/03/29 04:46:31;;;;;;;4.60;1.95;;;;;;;;;;5074903;28;20023;-63
2023/03/29 04:48:56;;;;;;;5.03;2.17;;;;;;;;;;5073402;28;20424;-63
2023/03/29 04:51:23;;;;;;;5.13;1.85;;;;;;;;;;5078786;28;20020;-63
2023/03/29 04:53:49;;;;;;;4.15;1.65;;;;;;;;;;5074893;28;20379;-62
2023/03/29 04:56:15;;;;;;;4.65;2.25;;;;;;;;;;5073866;28;20024;-63
2023/03/29 04:58:41;;;;;;;5.22;1.67;;;;;;;;;;5073393;28;20037;-63
2023/03/29 05:01:06;;;;;;;5.15;2.38;;;;;;;;;;5073802;28;20061;-63
2023/03/29 05:03:31;;;;;;;10.73;2.70;;;;;;;;;;5073668;28;20127;-62
2023/03/29 05:06:01;;;;;;;7.45;2.40;;;;;;;;;;5073837;28;20025;-62
2023/03/29 05:08:27;;;;;;;5.13;2.15;;;;;;;;;;5073764;28;20025;-62
2023/03/29 05:10:52;;;;;;;6.40;2.28;;;;;;;;;;5074838;28;20078;-62
2023/03/29 05:13:17;;;;;;;5.88;2.13;;;;;;;;;;5085113;28;20098;-63
2023/03/29 05:15:43;;;;;;;4.13;1.83;;;;;;;;;;5076242;28;20032;-62
2023/03/29 05:18:08;;;;;;;5.15;2.22;;;;;;;;;;5078517;28;20474;-63
2023/03/29 05:20:33;;;;;;;5.07;2.10;;;;;;;;;;5077922;28;20020;-63
2023/03/29 05:22:59;;;;;;;6.70;1.90;;;;;;;;;;5073346;28;20020;-63
2023/03/29 05:25:25;;;;;;;7.43;1.73;;;;;;;;;;5072878;28;20031;-63
2023/03/29 05:27:50;;;;;;;5.93;2.03;;;;;;;;;;5073503;28;20024;-62
2023/03/29 05:30:16;;;;;;;3.75;1.90;;;;;;;;;;5077053;28;20035;-63
2023/03/29 05:32:41;;;;;;;9.70;2.03;;;;;;;;;;5080651;28;20020;-62
2023/03/29 05:35:07;;;;;;;4.38;1.73;;;;;;;;;;5072926;28;20032;-62
2023/03/29 05:37:33;;;;;;;3.95;2.28;;;;;;;;;;5073241;28;20028;-63
2023/03/29 05:39:58;;;;;;;4.25;1.88;;;;;;;;;;5083666;28;20027;-62
2023/03/29 05:42:24;;;;;;;4.05;1.80;;;;;;;;;;5072627;28;20025;-63
2023/03/29 05:44:49;;;;;;;4.82;1.67;;;;;;;;;;5072845;28;20028;-63
2023/03/29 05:47:15;;;;;;;6.07;2.28;;;;;;;;;;5075192;28;20028;-62
2023/03/29 05:49:40;;;;;;;3.63;1.67;;;;;;;;;;5072833;28;20029;-63
2023/03/29 05:52:06;;;;;;;4.35;1.98;;;;;;;;;;5072559;28;20012;-63
2023/03/29 05:54:31;;;;;;;5.25;2.25;;;;;;;;;;5073206;28;20420;-63
2023/03/29 05:56:56;;;;;;;4.60;2.20;;;;;;;;;;5072632;28;20025;-62
2023/03/29 05:59:23;;;;;;;4.88;2.20;;;;;;;;;;5072766;28;20426;-63
2023/03/29 06:01:48;;;;;;;7.18;2.47;;;;;;;;;;5072446;28;20108;-63
2023/03/29 06:04:14;;;;;;;7.85;2.40;;;;;;;;;;5072476;28;20052;-63
2023/03/29 06:06:40;;;;;;;11.20;2.55;;;;;;;;;;5072844;28;20024;-63
2023/03/29 06:09:05;;;;;;;4.82;2.10;;;;;;;;;;5072595;28;20028;-63
2023/03/29 06:11:31;;;;;;;7.80;2.42;;;;;;;;;;5072297;28;20028;-63
2023/03/29 06:13:57;;;;;;;3.78;1.85;;;;;;;;;;5072955;28;20020;-62
2023/03/29 06:16:22;;;;;;;8.50;2.42;;;;;;;;;;5071866;28;20044;-62
2023/03/29 06:18:47;;;;;;;4.38;2.20;;;;;;;;;;5072233;28;20020;-63
2023/03/29 06:21:13;;;;;;;5.18;1.98;;;;;;;;;;5071693;28;20044;-63
2023/03/29 06:23:38;;;;;;;4.32;2.13;;;;;;;;;;5075287;28;20020;-63
2023/03/29 06:26:04;;;;;;;15.60;3.55;;;;;;;;;;5088808;28;20103;-63
2023/03/29 06:28:29;;;;;;;7.38;3.10;;;;;;;;;;5077220;28;20028;-63
2023/03/29 06:30:55;;;;;;;9.93;3.00;;;;;;;;;;5069179;28;20077;-64
2023/03/29 06:33:24;;;;;;;6.28;2.75;;;;;;;;;;5067655;28;20062;-64
2023/03/29 06:35:49;;;;;;;8.02;2.80;;;;;;;;;;5067283;28;20036;-63
2023/03/29 06:38:15;;;;;;;7.80;2.78;;;;;;;;;;5061784;28;20024;-63
2023/03/29 06:40:41;;;;;;;6.70;2.78;;;;;;;;;;5068889;28;20016;-64
2023/03/29 06:43:07;;;;;;;8.35;2.72;;;;;;;;;;5072629;28;20488;-63
2023/03/29 06:45:34;;;;;;;5.47;2.55;;;;;;;;;;5068971;28;20031;-63
2023/03/29 06:48:00;;;;;;;9.65;2.80;;;;;;;;;;5077288;28;20055;-63
2023/03/29 06:50:26;;;;;;;6.53;2.83;;;;;;;;;;5065959;28;20036;-63
2023/03/29 06:52:51;;;;;;;4.85;2.63;;;;;;;;;;5065362;28;20487;-63
2023/03/29 06:55:17;;;;;;;6.03;2.67;;;;;;;;;;5068935;28;20017;-63
2023/03/29 06:57:42;;;;;;;6.82;2.85;;;;;;;;;;5069163;28;20028;-63
2023/03/29 07:00:34;;;;;;;11.38;2.92;;;;;;;;;;5070116;28;20027;-63
2023/03/29 07:02:55;;;;;;;5.40;2.05;;;;;;;;;;5069637;28;20029;-63
2023/03/29 07:05:46;;;;;;;5.68;2.30;;;;;;;;;;5071881;28;20103;-63
2023/03/29 07:08:15;;;;;;;4.88;2.30;;;;;;;;;;5070741;28;20550;-63
2023/03/29 07:10:41;;;;;;;4.38;2.10;;;;;;;;;;5081832;28;20032;-63
2023/03/29 07:13:09;;;;;;;5.45;2.03;;;;;;;;;;5065899;28;20032;-63
2023/03/29 07:15:34;;;;;;;5.50;2.17;;;;;;;;;;5070784;28;20032;-63
2023/03/29 07:18:02;;;;;;;4.07;2.00;;;;;;;;;;5070957;28;20029;-63
2023/03/29 07:20:27;;;;;;;8.00;2.45;;;;;;;;;;5070436;28;20024;-63
2023/03/29 07:22:53;;;;;;;5.10;2.10;;;;;;;;;;5073988;28;20089;-63
2023/03/29 07:25:20;;;;;;;4.93;2.67;;;;;;;;;;5070839;28;20119;-64
2023/03/29 07:27:46;;;;;;;5.82;2.25;;;;;;;;;;5077470;28;20052;-63
2023/03/29 07:30:12;;;;;;;4.00;2.20;;;;;;;;;;5076547;28;20052;-63
2023/03/29 07:32:39;;;;;;;4.93;1.88;;;;;;;;;;5086919;28;20592;-63
2023/03/29 07:35:04;;;;;;;6.50;2.80;;;;;;;;;;5074156;28;20028;-63
2023/03/29 07:37:30;;;;;;;6.63;2.78;;;;;;;;;;5079575;28;20539;-63
2023/03/29 07:39:56;;;;;;;8.18;3.00;;;;;;;;;;5077890;28;21591;-63
2023/03/29 07:42:21;;;;;;;5.93;2.72;;;;;;;;;;5086256;28;20099;-63
2023/03/29 07:44:47;;;;;;;4.60;2.10;;;;;;;;;;5076664;28;20067;-63
2023/03/29 07:47:13;;;;;;;5.68;2.38;;;;;;;;;;5074170;28;20471;-63
2023/03/29 07:49:38;;;;;;;5.03;2.58;;;;;;;;;;5081158;28;20028;-64
2023/03/29 07:52:03;;;;;;;7.57;3.05;;;;;;;;;;5084048;28;20022;-63
2023/03/29 07:54:31;;;;;;;7.30;3.58;;;;;;;;;;5076164;28;20032;-63
2023/03/29 07:56:56;;;;;;;6.50;2.60;;;;;;;;;;5074492;28;20442;-63
2023/03/29 07:59:21;;;;;;;7.10;2.42;;;;;;;;;;5075264;28;20099;-64
2023/03/29 08:01:47;;;;;;;4.97;2.05;;;;;;;;;;5073809;28;20030;-63
2023/03/29 08:04:12;;;;;;;13.32;2.20;;;;;;;;;;5074497;28;20395;-63
2023/03/29 08:06:38;;;;;;;4.63;1.92;;;;;;;;;;5080774;28;20024;-63
2023/03/29 08:09:03;;;;;;;7.25;2.22;;;;;;;;;;5086388;28;20025;-64
2023/03/29 08:11:28;;;;;;;4.93;2.40;;;;;;;;;;5073358;28;20020;-63
2023/03/29 08:13:54;;;;;;;5.95;2.47;;;;;;;;;;5074962;28;20428;-63
2023/03/29 08:16:19;;;;;;;6.00;2.70;;;;;;;;;;5073700;28;20058;-63
2023/03/29 08:18:44;;;;;;;7.35;2.95;;;;;;;;;;5083958;28;20082;-64
2023/03/29 08:21:10;;;;;;;5.10;2.50;;;;;;;;;;5073674;28;20027;-64
2023/03/29 08:23:35;;;;;;;14.23;2.65;;;;;;;;;;5081821;28;20474;-63
2023/03/29 08:26:01;;;;;;;8.43;3.58;;;;;;;;;;5073759;28;20020;-63
2023/03/29 08:28:26;;;;;;;4.65;2.15;;;;;;;;;;5080125;28;20028;-63
2023/03/29 08:30:52;;;;;;;11.00;2.83;;;;;;;;;;5073962;28;20029;-63
2023/03/29 08:33:17;;;;;;;8.95;2.78;;;;;;;;;;5081048;28;20364;-63
2023/03/29 08:35:42;;;;;;;6.93;2.45;;;;;;;;;;5085140;28;20112;-60
2023/03/29 08:38:08;;;;;;;9.50;3.38;;;;;;;;;;5076586;28;20359;-60
2023/03/29 08:40:34;;;;;;;6.18;3.05;;;;;;;;;;5074035;28;20126;-60
2023/03/29 08:43:00;;;;;;;6.57;3.13;;;;;;;;;;5075016;28;20084;-60
2023/03/29 08:45:38;;;;;;;5.55;2.85;;;;;;;;;;5073392;28;20066;-60
2023/03/29 08:48:06;;;;;;;5.55;3.10;;;;;;;;;;5077293;28;20027;-60
2023/03/29 08:50:34;;;;;;;7.03;2.60;;;;;;;;;;5076184;28;20028;-61
2023/03/29 08:53:01;;;;;;;5.95;2.80;;;;;;;;;;5076988;28;20463;-61
2023/03/29 08:55:32;;;;;;;9.40;2.88;;;;;;;;;;5075988;28;20032;-61
2023/03/29 08:57:58;;;;;;;10.45;2.67;;;;;;;;;;5075127;28;20028;-60
2023/03/29 09:00:32;;;;;;;5.50;2.53;;;;;;;;;;5075296;28;20115;-61
2023/03/29 09:03:01;;;;;;;6.55;2.70;;;;;;;;;;5074818;28;20040;-61
2023/03/29 09:05:28;;;;;;;5.72;2.92;;;;;;;;;;5068834;28;20025;-61
2023/03/29 09:07:53;;;;;;;4.97;1.92;;;;;;;;;;5074787;28;20037;-60
2023/03/29 09:10:20;;;;;;;7.72;2.38;;;;;;;;;;5072398;28;20418;-63
2023/03/29 09:12:51;;;;;;;6.35;3.20;;;;;;;;;;5073301;28;20146;-63
2023/03/29 09:15:18;;;;;;;7.28;2.47;;;;;;;;;;5081840;28;20037;-63
2023/03/29 09:17:58;;;;;;;13.43;2.50;;;;;;;;;;5074759;28;20525;-61
2023/03/29 09:20:34;;;;;;;5.57;2.83;;;;;;;;;;5073616;28;20036;-60
2023/03/29 09:23:17;;;;;;;4.35;2.42;;;;;;;;;;5074695;28;20095;-62
2023/03/29 09:25:57;;;;;;;4.32;2.58;;;;;;;;;;5073977;28;20051;-62
2023/03/29 09:28:34;;;;;;;6.38;2.25;;;;;;;;;;5077467;28;20421;-62
2023/03/29 09:31:18;;;;;;;3.78;1.95;;;;;;;;;;5073290;28;20545;-62
2023/03/29 09:34:04;;;;;;;6.95;2.30;;;;;;;;;;5075016;28;20529;-61
2023/03/29 09:36:29;;;;;;;7.00;2.42;;;;;;;;;;5077181;28;20049;-61
2023/03/29 09:38:55;;;;;;;4.57;2.63;;;;;;;;;;5073552;28;20024;-65
2023/03/29 09:41:29;;;;;;;4.85;2.53;;;;;;;;;;5074582;28;20020;-61
2023/03/29 09:43:55;;;;;;;6.10;2.63;;;;;;;;;;5074518;28;20375;-61
2023/03/29 09:46:21;;;;;;;3.78;2.30;;;;;;;;;;5077480;28;20103;-61
2023/03/29 09:48:48;;;;;;;7.32;2.95;;;;;;;;;;5076130;28;20641;-61
2023/03/29 09:51:14;;;;;;;6.28;2.65;;;;;;;;;;5072541;28;20059;-61
2023/03/29 09:53:39;;;;;;;7.57;3.22;;;;;;;;;;5089710;28;20058;-61
2023/03/29 09:56:07;;;;;;;5.45;2.70;;;;;;;;;;5080211;28;20352;-63
2023/03/29 09:58:35;;;;;;;8.85;2.70;;;;;;;;;;5074960;28;20044;-61
2023/03/29 10:01:01;;;;;;;6.97;2.85;;;;;;;;;;5072200;28;20032;-61
2023/03/29 10:03:28;;;;;;;6.00;2.95;;;;;;;;;;5072017;28;20023;-62
2023/03/29 10:05:55;;;;;;;4.32;2.20;;;;;;;;;;5072139;28;20467;-59
2023/03/29 10:08:35;;;;;;;4.15;2.45;;;;;;;;;;5075149;28;20032;-60
2023/03/29 10:11:02;;;;;;;7.10;2.25;;;;;;;;;;5073552;28;20039;-60
2023/03/29 10:13:29;;;;;;;6.53;2.80;;;;;;;;;;5074668;28;20028;-61
2023/03/29 10:15:56;;;;;;;7.22;3.75;;;;;;;;;;5066336;28;20100;-61
2023/03/29 10:18:23;;;;;;;7.93;1.77;;;;;;;;;;5078642;28;20020;-60
2023/03/29 10:20:48;;;;;;;7.18;2.90;;;;;;;;;;5080987;28;20429;-61
2023/03/29 10:23:16;;;;;;;5.43;2.80;;;;;;;;;;5072246;28;20020;-61
2023/03/29 10:25:41;;;;;;;4.95;2.55;;;;;;;;;;5071682;28;20016;-61
2023/03/29 10:28:10;;;;;;;8.82;3.17;;;;;;;;;;5071167;28;20145;-61
2023/03/29 10:30:37;;;;;;;6.18;2.67;;;;;;;;;;5083758;28;20028;-61
2023/03/29 10:33:02;;;;;;;3.53;2.20;;;;;;;;;;5071575;28;20031;-61
2023/03/29 10:35:37;;;;;;;6.65;3.28;;;;;;;;;;5082302;28;20428;-61
2023/03/29 10:38:04;;;;;;;4.18;2.17;;;;;;;;;;5071174;28;20028;-61
2023/03/29 10:40:31;;;;;;;6.60;3.00;;;;;;;;;;5080492;28;20029;-61
2023/03/29 10:43:00;;;;;;;7.22;2.95;;;;;;;;;;5071746;28;20075;-61
2023/03/29 10:45:27;;;;;;;6.05;3.35;;;;;;;;;;5079811;28;20074;-61
2023/03/29 10:47:56;;;;;;;7.32;2.65;;;;;;;;;;5071377;28;20025;-61
2023/03/29 10:50:22;;;;;;;6.22;3.00;;;;;;;;;;5077686;28;20020;-60
2023/03/29 10:52:49;;;;;;;6.82;2.80;;;;;;;;;;5071472;28;20035;-60
2023/03/29 10:55:14;;;;;;;8.45;4.38;;;;;;;;;;5075730;28;20771;-60
2023/03/29 10:57:48;;;;;;;7.05;2.95;;;;;;;;;;5071293;28;20032;-60
2023/03/29 11:00:17;;;;;;;6.13;3.15;;;;;;;;;;5072180;28;20051;-61
2023/03/29 11:02:52;;;;;;;5.93;3.33;;;;;;;;;;5081305;28;20104;-61
2023/03/29 11:05:17;;;;;;;6.63;2.97;;;;;;;;;;5070093;28;20538;-62
2023/03/29 11:07:50;;;;;;;5.25;2.75;;;;;;;;;;5070897;28;20033;-60
2023/03/29 11:10:25;;;;;;;11.77;4.90;;;;;;;;;;5072773;28;20020;-61
2023/03/29 11:12:51;;;;;;;5.15;2.88;;;;;;;;;;5074858;28;20490;-61
2023/03/29 11:15:28;;;;;;;5.07;3.10;;;;;;;;;;5094475;28;20074;-61
2023/03/29 11:18:12;;;;;;;5.85;2.55;;;;;;;;;;5075142;28;20336;-61
2023/03/29 11:20:41;;;;;;;3.42;2.53;;;;;;;;;;5076533;28;20028;-61
2023/03/29 11:23:16;;;;;;;10.65;2.75;;;;;;;;;;5086688;28;20429;-61
2023/03/29 11:25:42;;;;;;;6.63;2.63;;;;;;;;;;5086447;28;20058;-61
2023/03/29 11:28:10;;;;;;;6.80;3.03;;;;;;;;;;5074837;28;20024;-61
2023/03/29 11:30:49;;;;;;;8.30;2.95;;;;;;;;;;5082161;28;20281;-61
2023/03/29 11:33:37;;;;;;;7.70;3.72;;;;;;;;;;5082176;28;20023;-61
2023/03/29 11:36:11;;;;;;;9.13;2.83;;;;;;;;;;5067501;28;20434;-61
2023/03/29 11:38:57;;;;;;;7.03;3.00;;;;;;;;;;5075823;28;20024;-61
2023/03/29 11:41:42;;;;;;;5.28;2.38;;;;;;;;;;5074610;28;20047;-61
2023/03/29 11:44:13;;;;;;;4.38;2.28;;;;;;;;;;5082654;28;20500;-61
2023/03/29 11:46:49;;;;;;;3.33;1.70;;;;;;;;;;5076416;28;20043;-61
2023/03/29 11:49:18;;;;;;;4.43;2.03;;;;;;;;;;5078521;28;20410;-61
2023/03/29 11:51:50;;;;;;;5.28;2.03;;;;;;;;;;5074359;28;20182;-61
2023/03/29 11:54:18;;;;;;;6.18;2.30;;;;;;;;;;5078041;28;20028;-64
2023/03/29 11:56:46;;;;;;;5.05;2.20;;;;;;;;;;5075395;28;20033;-61
2023/03/29 11:59:23;;;;;;;5.53;1.73;;;;;;;;;;5077321;28;20027;-62
2023/03/29 12:01:55;;;;;;;5.68;1.67;;;;;;;;;;5078940;28;20029;-62
2023/03/29 12:04:23;;;;;;;9.85;2.55;;;;;;;;;;5075814;28;20019;-63
2023/03/29 12:07:00;;;;;;;6.03;1.75;;;;;;;;;;5075987;28;20032;-61
2023/03/29 12:09:26;;;;;;;5.85;2.22;;;;;;;;;;5074110;28;20028;-61
2023/03/29 12:11:56;;;;;;;7.27;2.20;;;;;;;;;;5075942;28;20087;-61
2023/03/29 12:14:29;;;;;;;3.58;1.83;;;;;;;;;;5074286;28;20278;-61
2023/03/29 12:17:05;;;;;;;4.82;2.75;;;;;;;;;;5074276;28;20513;-62
2023/03/29 12:19:31;;;;;;;5.82;2.28;;;;;;;;;;5078346;28;20099;-61
2023/03/29 12:21:58;;;;;;;7.77;2.57;;;;;;;;;;5078623;28;20448;-61
2023/03/29 12:24:24;;;;;;;6.43;2.22;;;;;;;;;;5077485;28;20734;-61
2023/03/29 12:27:28;;;;;;;4.25;2.05;;;;;;;;;;5074612;28;20033;-62
2023/03/29 12:30:12;;;;;;;4.63;2.00;;;;;;;;;;4985433;28;20029;-62
2023/03/29 12:32:43;;;;;;;6.35;2.10;;;;;;;;;;4991086;28;20121;-62
2023/03/29 12:35:15;;;;;;;3.63;2.00;;;;;;;;;;5050285;28;20376;-62
2023/03/29 12:37:53;;;;;;;3.92;1.70;;;;;;;;;;5074014;28;20483;-62
2023/03/29 12:40:20;;;;;;;5.72;2.00;;;;;;;;;;5080660;28;20033;-62
2023/03/29 12:42:46;;;;;;;5.85;2.17;;;;;;;;;;5073657;28;20030;-62
2023/03/29 12:45:19;;;;;;;4.60;1.55;;;;;;;;;;5074427;28;20032;-62
2023/03/29 12:47:46;;;;;;;5.57;2.17;;;;;;;;;;5072986;28;20029;-62
2023/03/29 12:50:30;;;;;;;3.83;2.25;;;;;;;;;;5073383;28;20744;-62
2023/03/29 12:53:06;;;;;;;5.35;2.15;;;;;;;;;;5073277;28;20023;-61
2023/03/29 12:55:41;;;;;;;3.60;1.80;;;;;;;;;;5081214;28;20025;-61
2023/03/29 12:58:19;;;;;;;3.10;1.60;;;;;;;;;;5073534;28;20066;-62
2023/03/29 13:00:46;;;;;;;4.57;2.13;;;;;;;;;;5081617;28;20386;-62
2023/03/29 13:03:21;;;;;;;3.28;1.67;;;;;;;;;;5075955;28;20013;-62
2023/03/29 13:05:57;;;;;;;8.35;2.08;;;;;;;;;;5080358;28;20029;-62
2023/03/29 13:08:26;;;;;;;3.25;1.85;;;;;;;;;;5074999;28;20020;-62
2023/03/29 13:10:54;;;;;;;6.60;1.77;;;;;;;;;;5084807;28;20108;-62
2023/03/29 13:13:22;;;;;;;5.00;1.70;;;;;;;;;;5073391;28;20032;-62
2023/03/29 13:15:48;;;;;;;2.88;1.40;;;;;;;;;;5082516;28;20024;-62
2023/03/29 13:18:27;;;;;;;5.05;1.83;;;;;;;;;;5073076;28;20386;-62
2023/03/29 13:20:52;;;;;;;5.47;1.70;;;;;;;;;;5079103;28;20111;-62
2023/03/29 13:23:17;;;;;;;4.77;2.37;;;;;;;;;;5072675;28;20099;-62
2023/03/29 13:25:42;;;;;;;3.95;1.70;;;;;;;;;;5077271;28;20320;-62
2023/03/29 13:28:28;;;;;;;3.35;1.85;;;;;;;;;;5072215;28;20028;-62
2023/03/29 13:30:57;;;;;;;3.95;1.70;;;;;;;;;;5074918;28;20033;-62
2023/03/29 13:33:41;;;;;;;3.70;1.70;;;;;;;;;;5085295;28;20482;-61
2023/03/29 13:36:09;;;;;;;3.70;1.50;;;;;;;;;;5084206;28;20176;-62
2023/03/29 13:38:45;;;;;;;3.03;1.55;;;;;;;;;;5073102;28;20487;-61
2023/03/29 13:41:26;;;;;;;4.03;2.13;;;;;;;;;;5072341;28;20040;-60
2023/03/29 13:43:52;;;;;;;4.50;2.10;;;;;;;;;;5081637;28;20040;-60
2023/03/29 13:46:22;;;;;;;5.45;1.60;;;;;;;;;;5085969;28;20021;-60
2023/03/29 13:48:47;;;;;;;3.38;1.58;;;;;;;;;;5072313;28;20017;-60
2023/03/29 13:51:13;;;;;;;3.80;1.75;;;;;;;;;;5082062;28;20395;-60
2023/03/29 13:53:38;;;;;;;3.85;1.90;;;;;;;;;;5072882;28;20016;-60
2023/03/29 13:56:05;;;;;;;3.73;1.67;;;;;;;;;;5079349;28;20505;-60
2023/03/29 13:58:36;;;;;;;4.25;1.60;;;;;;;;;;5071785;28;20281;-60
2023/03/29 14:01:08;;;;;;;5.05;1.67;;;;;;;;;;5078503;28;20027;-60
2023/03/29 14:03:39;;;;;;;4.25;2.10;;;;;;;;;;5083705;28;20044;-60
2023/03/29 14:06:05;;;;;;;4.68;1.83;;;;;;;;;;5075297;28;20020;-60
2023/03/29 14:08:35;;;;;;;8.10;2.20;;;;;;;;;;5079959;28;20024;-60
2023/03/29 14:11:05;;;;;;;4.38;2.05;;;;;;;;;;5071865;28;20028;-60
2023/03/29 14:13:30;;;;;;;4.82;1.83;;;;;;;;;;5076561;28;20034;-60
2023/03/29 14:16:03;;;;;;;5.38;1.92;;;;;;;;;;5071831;28;20033;-60
2023/03/29 14:18:32;;;;;;;3.47;1.70;;;;;;;;;;5048861;28;20364;-57
2023/03/29 14:20:58;;;;;;;5.80;1.52;;;;;;;;;;5072879;28;20385;-58
2023/03/29 14:23:25;;;;;;;3.58;1.75;;;;;;;;;;5079190;28;20043;-61
2023/03/29 14:25:50;;;;;;;4.30;1.33;;;;;;;;;;5091742;28;20055;-60
2023/03/29 14:28:23;;;;;;;3.75;1.15;;;;;;;;;;5084931;28;20048;-59
2023/03/29 14:30:51;;;;;;;3.65;1.67;;;;;;;;;;5078457;28;20483;-60
2023/03/29 14:33:36;;;;;;;3.17;1.35;;;;;;;;;;5076364;28;20028;-60
2023/03/29 14:36:03;;;;;;;3.22;1.63;;;;;;;;;;5078941;28;20036;-60
2023/03/29 14:38:28;;;;;;;4.10;1.45;;;;;;;;;;5076878;28;20020;-59
2023/03/29 14:40:57;;;;;;;2.63;1.15;;;;;;;;;;5071693;28;20032;-60
2023/03/29 14:43:22;;;;;;;2.00;1.17;;;;;;;;;;5073938;28;20024;-60
2023/03/29 14:45:48;;;;;;;14.48;2.17;;;;;;;;;;5071547;28;20035;-60
2023/03/29 14:48:14;;;;;;;3.65;1.23;;;;;;;;;;5072244;28;20028;-59
2023/03/29 14:50:40;;;;;;;4.78;1.75;;;;;;;;;;5072138;28;20021;-60